sensor_id;sensor_type;location;lat;lon;timestamp;P1;durP1;ratioP1;P2;durP2;ratioP2
60018;SDS011;45870;42.528;26.740;2022-07-29T00:02:20;8.85;;;6.75;;
60018;SDS011;45870;42.528;26.740;2022-07-29T00:04:46;9.25;;;7.45;;
60018;SDS011;45870;42.528;26.740;2022-07-29T00:07:12;10.32;;;6.70;;
60018;SDS011;45870;42.528;26.740;2022-07-29T00:09:37;10.98;;;7.10;;
60018;SDS011;45870;42.528;26.740;2022-07-29T00:12:03;10.68;;;6.82;;
60018;SDS011;45870;42.528;26.740;2022-07-29T00:14:29;12.00;;;6.85;;
60018;SDS011;45870;42.528;26.740;2022-07-29T00:16:55;9.93;;;6.82;;
60018;SDS011;45870;42.528;26.740;2022-07-29T00:19:21;9.07;;;6.53;;
60018;SDS011;45870;42.528;26.740;2022-07-29T00:21:46;13.63;;;6.95;;
60018;SDS011;45870;42.528;26.740;2022-07-29T00:24:12;7.53;;;6.72;;
60018;SDS011;45870;42.528;26.740;2022-07-29T00:26:38;8.02;;;7.00;;
60018;SDS011;45870;42.528;26.740;2022-07-29T00:29:04;10.00;;;7.40;;
60018;SDS011;45870;42.528;26.740;2022-07-29T00:31:30;8.40;;;7.13;;
60018;SDS011;45870;42.528;26.740;2022-07-29T00:33:56;10.55;;;7.43;;
60018;SDS011;45870;42.528;26.740;2022-07-29T00:36:22;8.98;;;7.28;;
60018;SDS011;45870;42.528;26.740;2022-07-29T00:38:49;8.70;;;7.25;;
60018;SDS011;45870;42.528;26.740;2022-07-29T00:41:16;11.20;;;7.43;;
60018;SDS011;45870;42.528;26.740;2022-07-29T00:43:43;9.55;;;7.15;;
60018;SDS011;45870;42.528;26.740;2022-07-29T00:46:09;11.13;;;6.93;;
60018;SDS011;45870;42.528;26.740;2022-07-29T00:48:35;8.98;;;7.43;;
60018;SDS011;45870;42.528;26.740;2022-07-29T00:51:01;14.30;;;8.00;;
60018;SDS011;45870;42.528;26.740;2022-07-29T00:53:28;10.15;;;7.15;;
60018;SDS011;45870;42.528;26.740;2022-07-29T00:55:55;10.38;;;7.45;;
60018;SDS011;45870;42.528;26.740;2022-07-29T00:58:22;16.08;;;8.18;;
60018;SDS011;45870;42.528;26.740;2022-07-29T01:00:49;12.90;;;7.70;;
60018;SDS011;45870;42.528;26.740;2022-07-29T01:03:14;18.20;;;8.00;;
60018;SDS011;45870;42.528;26.740;2022-07-29T01:05:41;13.18;;;7.72;;
60018;SDS011;45870;42.528;26.740;2022-07-29T01:08:08;14.25;;;7.90;;
60018;SDS011;45870;42.528;26.740;2022-07-29T01:10:37;7.82;;;6.97;;
60018;SDS011;45870;42.528;26.740;2022-07-29T01:13:04;14.15;;;7.45;;
60018;SDS011;45870;42.528;26.740;2022-07-29T01:15:30;7.70;;;6.90;;
60018;SDS011;45870;42.528;26.740;2022-07-29T01:18:04;11.68;;;7.07;;
60018;SDS011;45870;42.528;26.740;2022-07-29T01:26:45;8.77;;;7.10;;
60018;SDS011;45870;42.528;26.740;2022-07-29T01:31:50;12.27;;;7.20;;
60018;SDS011;45870;42.528;26.740;2022-07-29T01:34:27;8.70;;;7.43;;
60018;SDS011;45870;42.528;26.740;2022-07-29T01:37:04;8.88;;;7.38;;
60018;SDS011;45870;42.528;26.740;2022-07-29T01:39:42;10.32;;;6.82;;
60018;SDS011;45870;42.528;26.740;2022-07-29T01:42:23;11.15;;;7.03;;
60018;SDS011;45870;42.528;26.740;2022-07-29T01:47:57;12.18;;;7.43;;
60018;SDS011;45870;42.528;26.740;2022-07-29T01:50:33;14.68;;;7.40;;
60018;SDS011;45870;42.528;26.740;2022-07-29T01:53:05;12.20;;;7.32;;
60018;SDS011;45870;42.528;26.740;2022-07-29T01:55:35;9.07;;;6.68;;
60018;SDS011;45870;42.528;26.740;2022-07-29T01:58:05;11.10;;;7.65;;
60018;SDS011;45870;42.528;26.740;2022-07-29T02:00:32;10.65;;;7.53;;
60018;SDS011;45870;42.528;26.740;2022-07-29T02:03:01;10.02;;;6.90;;
60018;SDS011;45870;42.528;26.740;2022-07-29T02:05:30;11.82;;;7.55;;
60018;SDS011;45870;42.528;26.740;2022-07-29T02:07:59;12.10;;;7.30;;
60018;SDS011;45870;42.528;26.740;2022-07-29T02:10:28;8.25;;;7.20;;
60018;SDS011;45870;42.528;26.740;2022-07-29T02:12:56;9.60;;;7.28;;
60018;SDS011;45870;42.528;26.740;2022-07-29T02:15:27;9.25;;;6.35;;
60018;SDS011;45870;42.528;26.740;2022-07-29T02:17:59;8.20;;;6.60;;
60018;SDS011;45870;42.528;26.740;2022-07-29T02:20:28;8.90;;;6.97;;
60018;SDS011;45870;42.528;26.740;2022-07-29T02:22:55;11.52;;;6.57;;
60018;SDS011;45870;42.528;26.740;2022-07-29T02:25:24;10.38;;;7.13;;
60018;SDS011;45870;42.528;26.740;2022-07-29T02:27:51;9.63;;;7.03;;
60018;SDS011;45870;42.528;26.740;2022-07-29T02:30:19;9.05;;;7.40;;
60018;SDS011;45870;42.528;26.740;2022-07-29T02:32:49;8.77;;;7.15;;
60018;SDS011;45870;42.528;26.740;2022-07-29T02:35:17;9.07;;;7.32;;
60018;SDS011;45870;42.528;26.740;2022-07-29T02:37:45;7.95;;;6.53;;
60018;SDS011;45870;42.528;26.740;2022-07-29T02:40:33;7.80;;;6.88;;
60018;SDS011;45870;42.528;26.740;2022-07-29T02:43:02;8.38;;;7.50;;
60018;SDS011;45870;42.528;26.740;2022-07-29T02:45:30;8.05;;;6.78;;
60018;SDS011;45870;42.528;26.740;2022-07-29T02:47:57;11.90;;;7.18;;
60018;SDS011;45870;42.528;26.740;2022-07-29T02:50:29;10.35;;;7.13;;
60018;SDS011;45870;42.528;26.740;2022-07-29T02:53:17;8.25;;;7.45;;
60018;SDS011;45870;42.528;26.740;2022-07-29T02:55:49;11.77;;;7.60;;
60018;SDS011;45870;42.528;26.740;2022-07-29T03:00:56;10.68;;;7.18;;
60018;SDS011;45870;42.528;26.740;2022-07-29T03:03:25;10.23;;;6.93;;
60018;SDS011;45870;42.528;26.740;2022-07-29T03:05:55;12.00;;;6.63;;
60018;SDS011;45870;42.528;26.740;2022-07-29T03:08:23;14.05;;;7.40;;
60018;SDS011;45870;42.528;26.740;2022-07-29T03:10:51;7.68;;;6.57;;
60018;SDS011;45870;42.528;26.740;2022-07-29T03:13:18;8.40;;;6.47;;
60018;SDS011;45870;42.528;26.740;2022-07-29T03:15:45;7.78;;;6.05;;
60018;SDS011;45870;42.528;26.740;2022-07-29T03:18:11;7.53;;;5.85;;
60018;SDS011;45870;42.528;26.740;2022-07-29T03:20:38;8.43;;;5.72;;
60018;SDS011;45870;42.528;26.740;2022-07-29T03:23:04;8.82;;;5.43;;
60018;SDS011;45870;42.528;26.740;2022-07-29T03:25:30;7.95;;;5.63;;
60018;SDS011;45870;42.528;26.740;2022-07-29T03:27:56;10.15;;;5.70;;
60018;SDS011;45870;42.528;26.740;2022-07-29T03:30:23;9.48;;;5.60;;
60018;SDS011;45870;42.528;26.740;2022-07-29T03:32:49;10.55;;;4.97;;
60018;SDS011;45870;42.528;26.740;2022-07-29T03:35:16;11.18;;;4.63;;
60018;SDS011;45870;42.528;26.740;2022-07-29T03:37:42;7.53;;;3.80;;
60018;SDS011;45870;42.528;26.740;2022-07-29T03:40:08;10.35;;;3.90;;
60018;SDS011;45870;42.528;26.740;2022-07-29T03:42:38;5.10;;;3.90;;
60018;SDS011;45870;42.528;26.740;2022-07-29T03:45:09;5.07;;;4.10;;
60018;SDS011;45870;42.528;26.740;2022-07-29T03:47:40;5.90;;;4.00;;
60018;SDS011;45870;42.528;26.740;2022-07-29T03:50:10;4.95;;;4.35;;
60018;SDS011;45870;42.528;26.740;2022-07-29T03:52:39;6.65;;;4.40;;
60018;SDS011;45870;42.528;26.740;2022-07-29T03:55:06;5.07;;;4.15;;
60018;SDS011;45870;42.528;26.740;2022-07-29T03:57:34;5.85;;;3.72;;
60018;SDS011;45870;42.528;26.740;2022-07-29T04:00:02;4.85;;;3.50;;
60018;SDS011;45870;42.528;26.740;2022-07-29T04:02:30;4.32;;;3.10;;
60018;SDS011;45870;42.528;26.740;2022-07-29T04:04:58;3.83;;;3.22;;
60018;SDS011;45870;42.528;26.740;2022-07-29T04:07:23;5.80;;;3.58;;
60018;SDS011;45870;42.528;26.740;2022-07-29T04:09:49;7.18;;;3.40;;
60018;SDS011;45870;42.528;26.740;2022-07-29T04:12:15;6.93;;;3.10;;
60018;SDS011;45870;42.528;26.740;2022-07-29T04:14:41;5.47;;;2.92;;
60018;SDS011;45870;42.528;26.740;2022-07-29T04:17:07;6.70;;;2.80;;
60018;SDS011;45870;42.528;26.740;2022-07-29T04:19:33;5.15;;;3.00;;
60018;SDS011;45870;42.528;26.740;2022-07-29T04:21:59;3.08;;;2.40;;
60018;SDS011;45870;42.528;26.740;2022-07-29T04:24:25;3.13;;;2.60;;
60018;SDS011;45870;42.528;26.740;2022-07-29T04:26:51;4.25;;;2.72;;
60018;SDS011;45870;42.528;26.740;2022-07-29T04:29:17;5.63;;;2.95;;
60018;SDS011;45870;42.528;26.740;2022-07-29T04:31:43;5.65;;;3.10;;
60018;SDS011;45870;42.528;26.740;2022-07-29T04:34:10;3.70;;;3.00;;
60018;SDS011;45870;42.528;26.740;2022-07-29T04:36:36;3.17;;;2.88;;
60018;SDS011;45870;42.528;26.740;2022-07-29T04:39:02;3.63;;;2.80;;
60018;SDS011;45870;42.528;26.740;2022-07-29T04:41:28;5.85;;;2.97;;
60018;SDS011;45870;42.528;26.740;2022-07-29T04:43:54;3.72;;;3.03;;
60018;SDS011;45870;42.528;26.740;2022-07-29T04:46:20;9.85;;;3.08;;
60018;SDS011;45870;42.528;26.740;2022-07-29T04:48:47;7.63;;;2.75;;
60018;SDS011;45870;42.528;26.740;2022-07-29T04:51:16;5.13;;;2.72;;
60018;SDS011;45870;42.528;26.740;2022-07-29T04:53:42;5.43;;;3.42;;
60018;SDS011;45870;42.528;26.740;2022-07-29T04:56:08;7.47;;;3.15;;
60018;SDS011;45870;42.528;26.740;2022-07-29T04:58:35;5.50;;;2.75;;
60018;SDS011;45870;42.528;26.740;2022-07-29T05:01:01;4.13;;;2.78;;
60018;SDS011;45870;42.528;26.740;2022-07-29T05:03:28;3.08;;;2.45;;
60018;SDS011;45870;42.528;26.740;2022-07-29T05:05:54;5.18;;;2.55;;
60018;SDS011;45870;42.528;26.740;2022-07-29T05:08:19;4.72;;;2.33;;
60018;SDS011;45870;42.528;26.740;2022-07-29T05:10:45;3.05;;;2.17;;
60018;SDS011;45870;42.528;26.740;2022-07-29T05:13:11;4.63;;;2.53;;
60018;SDS011;45870;42.528;26.740;2022-07-29T05:15:37;4.35;;;2.55;;
60018;SDS011;45870;42.528;26.740;2022-07-29T05:18:03;4.05;;;2.33;;
60018;SDS011;45870;42.528;26.740;2022-07-29T05:20:29;4.63;;;2.13;;
60018;SDS011;45870;42.528;26.740;2022-07-29T05:22:58;4.35;;;2.33;;
60018;SDS011;45870;42.528;26.740;2022-07-29T05:25:25;6.25;;;2.40;;
60018;SDS011;45870;42.528;26.740;2022-07-29T05:27:52;9.07;;;2.40;;
60018;SDS011;45870;42.528;26.740;2022-07-29T05:30:18;3.38;;;2.40;;
60018;SDS011;45870;42.528;26.740;2022-07-29T05:32:44;3.38;;;2.60;;
60018;SDS011;45870;42.528;26.740;2022-07-29T05:35:11;5.13;;;2.90;;
60018;SDS011;45870;42.528;26.740;2022-07-29T05:37:38;8.02;;;2.83;;
60018;SDS011;45870;42.528;26.740;2022-07-29T05:40:05;8.95;;;2.63;;
60018;SDS011;45870;42.528;26.740;2022-07-29T05:42:31;4.13;;;2.22;;
60018;SDS011;45870;42.528;26.740;2022-07-29T05:44:57;7.15;;;2.65;;
60018;SDS011;45870;42.528;26.740;2022-07-29T05:47:23;5.97;;;2.60;;
60018;SDS011;45870;42.528;26.740;2022-07-29T05:49:50;2.83;;;2.35;;
60018;SDS011;45870;42.528;26.740;2022-07-29T05:52:16;5.55;;;2.40;;
60018;SDS011;45870;42.528;26.740;2022-07-29T05:54:42;5.32;;;2.47;;
60018;SDS011;45870;42.528;26.740;2022-07-29T05:57:14;6.35;;;2.72;;
60018;SDS011;45870;42.528;26.740;2022-07-29T05:59:46;6.82;;;2.13;;
60018;SDS011;45870;42.528;26.740;2022-07-29T06:02:12;2.88;;;2.30;;
60018;SDS011;45870;42.528;26.740;2022-07-29T06:04:38;3.85;;;2.50;;
60018;SDS011;45870;42.528;26.740;2022-07-29T06:07:04;7.30;;;2.85;;
60018;SDS011;45870;42.528;26.740;2022-07-29T06:09:30;41.42;;;4.65;;
60018;SDS011;45870;42.528;26.740;2022-07-29T06:11:56;5.07;;;2.30;;
60018;SDS011;45870;42.528;26.740;2022-07-29T06:14:22;5.50;;;2.33;;
60018;SDS011;45870;42.528;26.740;2022-07-29T06:16:48;3.47;;;2.70;;
60018;SDS011;45870;42.528;26.740;2022-07-29T06:19:14;5.05;;;2.53;;
60018;SDS011;45870;42.528;26.740;2022-07-29T06:21:43;4.07;;;2.20;;
60018;SDS011;45870;42.528;26.740;2022-07-29T06:24:13;4.85;;;2.10;;
60018;SDS011;45870;42.528;26.740;2022-07-29T06:26:40;4.55;;;2.13;;
60018;SDS011;45870;42.528;26.740;2022-07-29T06:29:07;4.40;;;2.17;;
60018;SDS011;45870;42.528;26.740;2022-07-29T06:31:35;2.70;;;2.10;;
60018;SDS011;45870;42.528;26.740;2022-07-29T06:34:02;3.28;;;2.00;;
60018;SDS011;45870;42.528;26.740;2022-07-29T06:36:28;5.53;;;2.22;;
60018;SDS011;45870;42.528;26.740;2022-07-29T06:38:54;5.35;;;2.20;;
60018;SDS011;45870;42.528;26.740;2022-07-29T06:41:20;3.15;;;2.50;;
60018;SDS011;45870;42.528;26.740;2022-07-29T06:43:46;3.60;;;2.40;;
60018;SDS011;45870;42.528;26.740;2022-07-29T06:46:13;4.63;;;2.35;;
60018;SDS011;45870;42.528;26.740;2022-07-29T06:48:42;6.60;;;2.40;;
60018;SDS011;45870;42.528;26.740;2022-07-29T06:51:10;6.35;;;2.60;;
60018;SDS011;45870;42.528;26.740;2022-07-29T06:53:37;5.53;;;2.38;;
60018;SDS011;45870;42.528;26.740;2022-07-29T06:56:04;7.18;;;2.35;;
60018;SDS011;45870;42.528;26.740;2022-07-29T06:58:31;4.10;;;2.40;;
60018;SDS011;45870;42.528;26.740;2022-07-29T07:00:58;2.67;;;2.00;;
60018;SDS011;45870;42.528;26.740;2022-07-29T07:03:27;4.20;;;2.15;;
60018;SDS011;45870;42.528;26.740;2022-07-29T07:05:53;2.38;;;2.17;;
60018;SDS011;45870;42.528;26.740;2022-07-29T07:08:20;3.17;;;2.30;;
60018;SDS011;45870;42.528;26.740;2022-07-29T07:10:47;3.50;;;2.40;;
60018;SDS011;45870;42.528;26.740;2022-07-29T07:13:13;3.53;;;2.10;;
60018;SDS011;45870;42.528;26.740;2022-07-29T07:15:39;4.10;;;2.30;;
60018;SDS011;45870;42.528;26.740;2022-07-29T07:18:05;3.00;;;2.40;;
60018;SDS011;45870;42.528;26.740;2022-07-29T07:20:32;2.45;;;2.10;;
60018;SDS011;45870;42.528;26.740;2022-07-29T07:22:59;4.15;;;2.20;;
60018;SDS011;45870;42.528;26.740;2022-07-29T07:25:25;6.47;;;2.45;;
60018;SDS011;45870;42.528;26.740;2022-07-29T07:27:51;3.88;;;2.30;;
60018;SDS011;45870;42.528;26.740;2022-07-29T07:30:17;4.72;;;2.47;;
60018;SDS011;45870;42.528;26.740;2022-07-29T07:32:43;7.93;;;2.40;;
60018;SDS011;45870;42.528;26.740;2022-07-29T07:35:09;4.70;;;2.30;;
60018;SDS011;45870;42.528;26.740;2022-07-29T07:37:35;5.45;;;2.38;;
60018;SDS011;45870;42.528;26.740;2022-07-29T07:40:01;2.40;;;2.20;;
60018;SDS011;45870;42.528;26.740;2022-07-29T07:45:14;4.35;;;2.42;;
60018;SDS011;45870;42.528;26.740;2022-07-29T07:47:39;3.40;;;2.25;;
60018;SDS011;45870;42.528;26.740;2022-07-29T07:50:06;3.08;;;2.20;;
60018;SDS011;45870;42.528;26.740;2022-07-29T07:52:33;3.40;;;2.40;;
60018;SDS011;45870;42.528;26.740;2022-07-29T07:54:59;3.78;;;2.13;;
60018;SDS011;45870;42.528;26.740;2022-07-29T07:57:26;4.35;;;2.35;;
60018;SDS011;45870;42.528;26.740;2022-07-29T07:59:52;5.15;;;2.42;;
60018;SDS011;45870;42.528;26.740;2022-07-29T08:02:17;4.95;;;2.65;;
60018;SDS011;45870;42.528;26.740;2022-07-29T08:04:43;3.28;;;2.10;;
60018;SDS011;45870;42.528;26.740;2022-07-29T08:07:09;4.72;;;2.20;;
60018;SDS011;45870;42.528;26.740;2022-07-29T08:09:35;3.47;;;2.28;;
60018;SDS011;45870;42.528;26.740;2022-07-29T08:12:02;3.20;;;2.17;;
60018;SDS011;45870;42.528;26.740;2022-07-29T08:14:29;3.63;;;2.45;;
60018;SDS011;45870;42.528;26.740;2022-07-29T08:16:55;3.63;;;2.30;;
60018;SDS011;45870;42.528;26.740;2022-07-29T08:19:21;6.20;;;2.25;;
60018;SDS011;45870;42.528;26.740;2022-07-29T08:21:47;2.63;;;2.08;;
60018;SDS011;45870;42.528;26.740;2022-07-29T08:24:13;4.70;;;2.17;;
60018;SDS011;45870;42.528;26.740;2022-07-29T08:26:57;4.22;;;2.10;;
60018;SDS011;45870;42.528;26.740;2022-07-29T08:29:22;4.00;;;1.88;;
60018;SDS011;45870;42.528;26.740;2022-07-29T08:31:48;4.65;;;2.15;;
60018;SDS011;45870;42.528;26.740;2022-07-29T08:34:14;5.32;;;2.08;;
60018;SDS011;45870;42.528;26.740;2022-07-29T08:36:40;4.30;;;2.42;;
60018;SDS011;45870;42.528;26.740;2022-07-29T08:39:06;6.25;;;2.17;;
60018;SDS011;45870;42.528;26.740;2022-07-29T08:41:32;3.92;;;2.08;;
60018;SDS011;45870;42.528;26.740;2022-07-29T08:43:58;2.92;;;1.90;;
60018;SDS011;45870;42.528;26.740;2022-07-29T08:46:24;3.33;;;2.10;;
60018;SDS011;45870;42.528;26.740;2022-07-29T08:48:49;5.50;;;2.28;;
60018;SDS011;45870;42.528;26.740;2022-07-29T08:51:17;4.15;;;2.10;;
60018;SDS011;45870;42.528;26.740;2022-07-29T08:53:45;3.58;;;2.13;;
60018;SDS011;45870;42.528;26.740;2022-07-29T08:56:14;2.78;;;2.08;;
60018;SDS011;45870;42.528;26.740;2022-07-29T08:58:44;5.68;;;2.28;;
60018;SDS011;45870;42.528;26.740;2022-07-29T09:01:11;3.42;;;2.22;;
60018;SDS011;45870;42.528;26.740;2022-07-29T09:03:41;3.92;;;2.72;;
60018;SDS011;45870;42.528;26.740;2022-07-29T09:06:12;6.10;;;2.40;;
60018;SDS011;45870;42.528;26.740;2022-07-29T09:08:40;6.13;;;2.53;;
60018;SDS011;45870;42.528;26.740;2022-07-29T09:11:06;2.83;;;2.58;;
60018;SDS011;45870;42.528;26.740;2022-07-29T09:13:32;3.70;;;2.25;;
60018;SDS011;45870;42.528;26.740;2022-07-29T09:15:59;5.13;;;2.40;;
60018;SDS011;45870;42.528;26.740;2022-07-29T09:18:34;8.60;;;2.70;;
60018;SDS011;45870;42.528;26.740;2022-07-29T09:21:10;3.38;;;2.40;;
60018;SDS011;45870;42.528;26.740;2022-07-29T09:24:10;6.03;;;2.30;;
60018;SDS011;45870;42.528;26.740;2022-07-29T09:26:39;4.20;;;2.20;;
60018;SDS011;45870;42.528;26.740;2022-07-29T09:29:10;3.08;;;2.22;;
60018;SDS011;45870;42.528;26.740;2022-07-29T09:31:45;4.47;;;2.28;;
60018;SDS011;45870;42.528;26.740;2022-07-29T09:34:14;4.18;;;2.22;;
60018;SDS011;45870;42.528;26.740;2022-07-29T09:36:46;3.28;;;2.30;;
60018;SDS011;45870;42.528;26.740;2022-07-29T09:39:13;5.45;;;2.45;;
60018;SDS011;45870;42.528;26.740;2022-07-29T09:44:17;3.08;;;2.40;;
60018;SDS011;45870;42.528;26.740;2022-07-29T09:46:56;4.13;;;2.22;;
60018;SDS011;45870;42.528;26.740;2022-07-29T09:49:34;7.28;;;2.38;;
60018;SDS011;45870;42.528;26.740;2022-07-29T09:52:15;4.07;;;2.72;;
60018;SDS011;45870;42.528;26.740;2022-07-29T09:54:42;2.58;;;2.15;;
60018;SDS011;45870;42.528;26.740;2022-07-29T09:57:08;4.82;;;2.40;;
60018;SDS011;45870;42.528;26.740;2022-07-29T10:02:33;5.80;;;2.60;;
60018;SDS011;45870;42.528;26.740;2022-07-29T10:05:00;5.78;;;2.72;;
60018;SDS011;45870;42.528;26.740;2022-07-29T10:12:57;6.40;;;2.50;;
60018;SDS011;45870;42.528;26.740;2022-07-29T10:15:26;5.20;;;2.70;;
60018;SDS011;45870;42.528;26.740;2022-07-29T10:17:54;4.35;;;2.58;;
60018;SDS011;45870;42.528;26.740;2022-07-29T10:20:23;7.88;;;2.50;;
60018;SDS011;45870;42.528;26.740;2022-07-29T10:22:50;5.45;;;2.50;;
60018;SDS011;45870;42.528;26.740;2022-07-29T10:25:16;5.05;;;2.30;;
60018;SDS011;45870;42.528;26.740;2022-07-29T10:27:43;3.17;;;2.35;;
60018;SDS011;45870;42.528;26.740;2022-07-29T10:30:11;5.00;;;2.58;;
60018;SDS011;45870;42.528;26.740;2022-07-29T10:32:53;4.85;;;2.30;;
60018;SDS011;45870;42.528;26.740;2022-07-29T10:38:15;3.80;;;2.38;;
60018;SDS011;45870;42.528;26.740;2022-07-29T10:43:53;5.93;;;2.53;;
60018;SDS011;45870;42.528;26.740;2022-07-29T10:46:22;3.63;;;2.50;;
60018;SDS011;45870;42.528;26.740;2022-07-29T10:49:05;3.97;;;2.63;;
60018;SDS011;45870;42.528;26.740;2022-07-29T10:59:35;3.72;;;2.75;;
60018;SDS011;45870;42.528;26.740;2022-07-29T11:02:01;3.85;;;2.55;;
60018;SDS011;45870;42.528;26.740;2022-07-29T11:07:09;5.05;;;2.70;;
60018;SDS011;45870;42.528;26.740;2022-07-29T11:09:35;5.18;;;2.83;;
60018;SDS011;45870;42.528;26.740;2022-07-29T11:12:01;5.85;;;3.05;;
60018;SDS011;45870;42.528;26.740;2022-07-29T11:17:17;5.22;;;2.42;;
60018;SDS011;45870;42.528;26.740;2022-07-29T11:19:43;5.95;;;2.55;;
60018;SDS011;45870;42.528;26.740;2022-07-29T11:22:10;6.10;;;2.42;;
60018;SDS011;45870;42.528;26.740;2022-07-29T11:24:40;6.05;;;2.70;;
60018;SDS011;45870;42.528;26.740;2022-07-29T11:29:55;3.45;;;2.45;;
60018;SDS011;45870;42.528;26.740;2022-07-29T11:32:24;3.42;;;2.45;;
60018;SDS011;45870;42.528;26.740;2022-07-29T11:37:44;3.70;;;2.50;;
60018;SDS011;45870;42.528;26.740;2022-07-29T11:40:29;7.03;;;2.75;;
60018;SDS011;45870;42.528;26.740;2022-07-29T11:42:55;5.78;;;2.50;;
60018;SDS011;45870;42.528;26.740;2022-07-29T11:45:21;6.65;;;2.40;;
60018;SDS011;45870;42.528;26.740;2022-07-29T11:47:50;3.80;;;2.50;;
60018;SDS011;45870;42.528;26.740;2022-07-29T11:52:55;4.13;;;2.38;;
60018;SDS011;45870;42.528;26.740;2022-07-29T11:55:22;5.32;;;2.38;;
60018;SDS011;45870;42.528;26.740;2022-07-29T12:00:25;5.35;;;2.60;;
60018;SDS011;45870;42.528;26.740;2022-07-29T12:02:55;3.65;;;2.20;;
60018;SDS011;45870;42.528;26.740;2022-07-29T12:05:30;5.47;;;2.67;;
60018;SDS011;45870;42.528;26.740;2022-07-29T12:08:04;5.13;;;2.80;;
60018;SDS011;45870;42.528;26.740;2022-07-29T12:10:34;3.65;;;2.20;;
60018;SDS011;45870;42.528;26.740;2022-07-29T12:13:00;4.07;;;2.40;;
60018;SDS011;45870;42.528;26.740;2022-07-29T12:15:26;2.63;;;2.28;;
60018;SDS011;45870;42.528;26.740;2022-07-29T12:17:52;3.25;;;2.42;;
60018;SDS011;45870;42.528;26.740;2022-07-29T12:20:28;3.90;;;2.33;;
60018;SDS011;45870;42.528;26.740;2022-07-29T12:22:54;3.10;;;2.20;;
60018;SDS011;45870;42.528;26.740;2022-07-29T12:25:22;2.78;;;2.05;;
60018;SDS011;45870;42.528;26.740;2022-07-29T12:27:59;4.57;;;2.47;;
60018;SDS011;45870;42.528;26.740;2022-07-29T12:30:34;4.90;;;2.42;;
60018;SDS011;45870;42.528;26.740;2022-07-29T12:35:54;5.97;;;2.67;;
60018;SDS011;45870;42.528;26.740;2022-07-29T12:38:22;5.38;;;2.42;;
60018;SDS011;45870;42.528;26.740;2022-07-29T12:40:49;3.58;;;2.38;;
60018;SDS011;45870;42.528;26.740;2022-07-29T12:43:21;4.13;;;2.20;;
60018;SDS011;45870;42.528;26.740;2022-07-29T12:45:49;3.30;;;2.47;;
60018;SDS011;45870;42.528;26.740;2022-07-29T12:48:16;5.88;;;2.08;;
60018;SDS011;45870;42.528;26.740;2022-07-29T12:50:56;3.65;;;2.35;;
60018;SDS011;45870;42.528;26.740;2022-07-29T12:53:24;8.30;;;2.43;;
60018;SDS011;45870;42.528;26.740;2022-07-29T12:55:52;5.93;;;2.33;;
60018;SDS011;45870;42.528;26.740;2022-07-29T12:58:26;5.13;;;2.30;;
60018;SDS011;45870;42.528;26.740;2022-07-29T13:01:00;3.63;;;2.30;;
60018;SDS011;45870;42.528;26.740;2022-07-29T13:03:27;3.80;;;2.85;;
60018;SDS011;45870;42.528;26.740;2022-07-29T13:05:53;6.45;;;2.47;;
60018;SDS011;45870;42.528;26.740;2022-07-29T13:08:19;6.72;;;2.42;;
60018;SDS011;45870;42.528;26.740;2022-07-29T13:10:45;3.55;;;2.20;;
60018;SDS011;45870;42.528;26.740;2022-07-29T13:13:12;3.53;;;2.30;;
60018;SDS011;45870;42.528;26.740;2022-07-29T13:15:41;4.40;;;2.00;;
60018;SDS011;45870;42.528;26.740;2022-07-29T13:18:27;3.90;;;2.20;;
60018;SDS011;45870;42.528;26.740;2022-07-29T13:20:57;5.53;;;2.20;;
60018;SDS011;45870;42.528;26.740;2022-07-29T13:23:36;3.92;;;2.33;;
60018;SDS011;45870;42.528;26.740;2022-07-29T13:26:06;4.60;;;2.47;;
60018;SDS011;45870;42.528;26.740;2022-07-29T13:28:34;8.48;;;2.60;;
60018;SDS011;45870;42.528;26.740;2022-07-29T13:31:00;3.83;;;2.30;;
60018;SDS011;45870;42.528;26.740;2022-07-29T13:33:26;4.88;;;2.38;;
60018;SDS011;45870;42.528;26.740;2022-07-29T13:35:52;5.30;;;2.47;;
60018;SDS011;45870;42.528;26.740;2022-07-29T13:38:18;3.53;;;2.40;;
60018;SDS011;45870;42.528;26.740;2022-07-29T13:40:43;4.32;;;2.05;;
60018;SDS011;45870;42.528;26.740;2022-07-29T13:43:10;3.55;;;2.53;;
60018;SDS011;45870;42.528;26.740;2022-07-29T13:45:36;4.88;;;2.45;;
60018;SDS011;45870;42.528;26.740;2022-07-29T13:48:02;7.38;;;2.40;;
60018;SDS011;45870;42.528;26.740;2022-07-29T13:50:28;6.60;;;2.67;;
60018;SDS011;45870;42.528;26.740;2022-07-29T13:52:54;3.63;;;2.50;;
60018;SDS011;45870;42.528;26.740;2022-07-29T13:55:22;2.80;;;2.35;;
60018;SDS011;45870;42.528;26.740;2022-07-29T13:57:48;5.13;;;2.60;;
60018;SDS011;45870;42.528;26.740;2022-07-29T14:00:13;3.42;;;2.38;;
60018;SDS011;45870;42.528;26.740;2022-07-29T14:02:40;4.72;;;2.50;;
60018;SDS011;45870;42.528;26.740;2022-07-29T14:05:06;5.63;;;2.78;;
60018;SDS011;45870;42.528;26.740;2022-07-29T14:07:33;5.72;;;2.70;;
60018;SDS011;45870;42.528;26.740;2022-07-29T14:09:58;10.25;;;2.70;;
60018;SDS011;45870;42.528;26.740;2022-07-29T14:12:24;4.55;;;2.90;;
60018;SDS011;45870;42.528;26.740;2022-07-29T14:14:50;6.70;;;2.95;;
60018;SDS011;45870;42.528;26.740;2022-07-29T14:17:15;5.03;;;2.67;;
60018;SDS011;45870;42.528;26.740;2022-07-29T14:19:41;3.58;;;2.70;;
60018;SDS011;45870;42.528;26.740;2022-07-29T14:22:08;6.13;;;3.72;;
60018;SDS011;45870;42.528;26.740;2022-07-29T14:24:34;6.00;;;2.92;;
60018;SDS011;45870;42.528;26.740;2022-07-29T14:27:01;14.80;;;2.85;;
60018;SDS011;45870;42.528;26.740;2022-07-29T14:29:26;6.78;;;2.78;;
60018;SDS011;45870;42.528;26.740;2022-07-29T14:31:52;5.45;;;2.65;;
60018;SDS011;45870;42.528;26.740;2022-07-29T14:34:18;7.20;;;2.58;;
60018;SDS011;45870;42.528;26.740;2022-07-29T14:36:44;5.00;;;2.63;;
60018;SDS011;45870;42.528;26.740;2022-07-29T14:39:10;4.97;;;2.70;;
60018;SDS011;45870;42.528;26.740;2022-07-29T14:41:36;4.07;;;2.45;;
60018;SDS011;45870;42.528;26.740;2022-07-29T14:44:01;4.80;;;2.60;;
60018;SDS011;45870;42.528;26.740;2022-07-29T14:46:27;5.72;;;2.88;;
60018;SDS011;45870;42.528;26.740;2022-07-29T14:48:53;5.43;;;2.65;;
60018;SDS011;45870;42.528;26.740;2022-07-29T14:51:19;3.45;;;2.45;;
60018;SDS011;45870;42.528;26.740;2022-07-29T14:53:45;7.25;;;2.83;;
60018;SDS011;45870;42.528;26.740;2022-07-29T14:56:11;5.05;;;2.72;;
60018;SDS011;45870;42.528;26.740;2022-07-29T14:58:37;5.00;;;2.97;;
60018;SDS011;45870;42.528;26.740;2022-07-29T15:01:03;4.78;;;2.50;;
60018;SDS011;45870;42.528;26.740;2022-07-29T15:03:30;6.47;;;2.72;;
60018;SDS011;45870;42.528;26.740;2022-07-29T15:05:56;4.93;;;2.88;;
60018;SDS011;45870;42.528;26.740;2022-07-29T15:08:22;26.08;;;3.90;;
60018;SDS011;45870;42.528;26.740;2022-07-29T15:10:48;11.20;;;3.00;;
60018;SDS011;45870;42.528;26.740;2022-07-29T15:13:14;7.63;;;2.70;;
60018;SDS011;45870;42.528;26.740;2022-07-29T15:15:40;3.42;;;2.42;;
60018;SDS011;45870;42.528;26.740;2022-07-29T15:18:07;4.72;;;2.58;;
60018;SDS011;45870;42.528;26.740;2022-07-29T15:20:34;7.18;;;2.60;;
60018;SDS011;45870;42.528;26.740;2022-07-29T15:23:00;5.20;;;2.70;;
60018;SDS011;45870;42.528;26.740;2022-07-29T15:25:25;4.43;;;2.58;;
60018;SDS011;45870;42.528;26.740;2022-07-29T15:27:51;4.78;;;2.78;;
60018;SDS011;45870;42.528;26.740;2022-07-29T15:30:17;4.20;;;2.72;;
60018;SDS011;45870;42.528;26.740;2022-07-29T15:32:43;7.75;;;2.83;;
60018;SDS011;45870;42.528;26.740;2022-07-29T15:35:10;9.73;;;2.70;;
60018;SDS011;45870;42.528;26.740;2022-07-29T15:37:39;4.68;;;2.97;;
60018;SDS011;45870;42.528;26.740;2022-07-29T15:40:05;4.50;;;2.95;;